Detall de PIREP

Printer-friendly versionPDF version

[2013/04/22 14:47:00]
Flight IATA:CT2310
Pilot Number:012
Company ICAO:CAT
Aircraft Type:F70/A
PAX:79
Aircraft Registration:PFJ
Departing Airport: LIEA
Destination Airport: LIMC
Alternate Airport:LIMF
Online: VATSIM
Route:GOPAT UL978 OKBON UN851 TORTU UM858 UNITA UL50 ANAKI
Flight Level:F260
No Slew and time accel
No pause
Crash detect
Detect pilot in Cockpit between each 30 and 45 minutes
14:47 Zero fuel Weight: 70880 Lbs, Fuel Weight: 7976 Lbs
14:47 VATSIM:LIEA 221420Z 26005KT 210V330 9999 SCT030 17/10 Q1013
14:47 VATSIM:LIMC 221420Z 19006KT 140V200 9999 SCT020 BKN050 15/07 Q1014 NOSIG
14:47 VOICE CATALONIAN
14:48 Parking Brakes off
14:53 Take-off
14:53 Take off Weight: 78504 Lbs
14:53 Wind: 278º @ 005 Knots Heading: 021º
14:53 POS N40º 37´ 54´´ E008º 17´ 26´´
14:54 Gear Up: 144 Knots
14:54 Flaps:2 at 144 Knots
14:54 Flaps:1 at 173 Knots
14:54 Flaps:0 at 182 Knots
15:05 TOC
15:05 Fuel Weight: 6112 Lb
15:09 Wind:358º@030 Knots Heading: 000º Ground Speed: 404 Knots Altitude 25964 ft
15:24 Wind:031º@025 Knots Heading: 004º Ground Speed: 403 Knots Altitude 25997 ft
15:32 TOD
15:32 Fuel Weight: 3672 Lb
15:39 Wind:044º@006 Knots Heading: 345º Ground Speed: 299 Knots Altitude 13057 ft
15:46 Flaps:1 at 184 Knots
15:50 Flaps:2 at 164 Knots
15:51 Flaps:3 at 153 Knots
15:51 Gear Down: 142 Knots
15:51 Flaps:4 at 146 Knots
15:54 Wind:167º@006 Knots Heading: 169º Ground Speed: 119 Knots Altitude 895 ft
15:54 TouchDown:Rate -157 ft/min Speed: 110 Knots
15:54 VATSIM:LIMC 221520Z 17005KT 120V190 9999 FEW020 BKN060 15/08 Q1014 NOSIG
15:54 Land
15:54 Wind:168º@006 Knots
15:54 Heading: 170º
15:54 Flight Duration: 01:00
15:54 Landing Weight: 73756 Lbs
15:54 POS N45º 37´ 58´´ E008º 43´ 57´´
15:58 Parking brakes on
15:58 Block to Block Duration: 01:10
15:58 Final Fuel: 2724 Lbls
15:58 Spent Fuel: 5251 Lbls
15:58 Flight Length: 329 NM
15:58 TOD Land Length: 87 NM

Exportar CSV

Powered by Drupal - Modified by Danger4k